createdAt,value
2018-05-12T00:01:49.314Z,9.40
2018-05-12T00:04:19.480Z,9.40
2018-05-12T00:06:49.612Z,9.40
2018-05-12T00:09:25.756Z,9.40
2018-05-12T00:11:55.988Z,9.40
2018-05-12T00:14:26.198Z,9.30
2018-05-12T00:16:57.773Z,9.40
2018-05-12T00:19:28.664Z,9.40
2018-05-12T00:21:58.823Z,9.40
2018-05-12T00:24:28.925Z,9.50
2018-05-12T00:26:59.056Z,9.50
2018-05-12T00:32:04.120Z,9.50
2018-05-12T00:34:34.687Z,9.40
2018-05-12T00:37:04.697Z,9.40
2018-05-12T00:39:35.035Z,9.40
2018-05-12T00:42:04.471Z,9.30
2018-05-12T00:44:34.810Z,9.30
2018-05-12T00:47:04.930Z,9.30
2018-05-12T00:52:18.292Z,9.30
2018-05-12T00:57:24.782Z,9.20
2018-05-12T00:59:56.068Z,9.10
2018-05-12T01:02:26.201Z,9.10
2018-05-12T01:04:56.521Z,9.10
2018-05-12T01:07:27.560Z,9.10
2018-05-12T01:09:57.767Z,9.10
2018-05-12T01:12:29.148Z,9.10
2018-05-12T01:14:59.369Z,9.20
2018-05-12T01:17:29.643Z,9.20
2018-05-12T01:19:59.757Z,9.30
2018-05-12T01:22:30.653Z,9.20
2018-05-12T01:25:05.029Z,9.20
2018-05-12T01:30:15.305Z,9.20
2018-05-12T01:32:45.704Z,9.20
2018-05-12T01:35:16.044Z,9.20
2018-05-12T01:37:46.493Z,9.20
2018-05-12T01:40:17.079Z,9.10
2018-05-12T01:42:47.532Z,9.10
2018-05-12T01:45:18.418Z,9.10
2018-05-12T01:47:48.526Z,9.20
2018-05-12T01:50:24.988Z,9.20
2018-05-12T01:55:53.809Z,9.20
2018-05-12T01:58:40.378Z,9.20
2018-05-12T02:01:27.031Z,9.20
2018-05-12T02:09:49.678Z,9.30
2018-05-12T02:12:19.821Z,9.30
2018-05-12T02:14:50.155Z,9.30
2018-05-12T02:17:20.545Z,9.10
2018-05-12T02:19:51.392Z,9.00
2018-05-12T02:22:21.482Z,8.90
2018-05-12T02:24:51.671Z,8.80
2018-05-12T02:27:21.860Z,8.80
2018-05-12T02:29:52.820Z,8.90
2018-05-12T02:32:23.739Z,8.90
2018-05-12T02:37:55.835Z,9.00
2018-05-12T02:40:26.677Z,9.10
2018-05-12T02:42:57.469Z,9.20
2018-05-12T02:45:28.368Z,9.10
2018-05-12T02:47:58.590Z,9.10
2018-05-12T02:53:26.246Z,9.00
2018-05-12T02:55:57.160Z,9.00
2018-05-12T02:58:27.247Z,9.10
2018-05-12T03:00:57.332Z,9.10
2018-05-12T03:03:27.536Z,9.10
2018-05-12T03:08:39.175Z,9.20
2018-05-12T03:11:09.570Z,9.20
2018-05-12T03:13:39.777Z,9.20
2018-05-12T03:16:09.855Z,9.20
2018-05-12T03:18:40.154Z,9.30
2018-05-12T03:21:10.476Z,9.30
2018-05-12T03:23:41.675Z,9.30
2018-05-12T03:28:56.589Z,9.30
2018-05-12T03:31:26.896Z,9.30
2018-05-12T03:33:57.977Z,9.40
2018-05-12T03:36:28.212Z,9.40
2018-05-12T03:38:58.371Z,9.40
2018-05-12T03:41:33.320Z,9.20
2018-05-12T03:47:05.213Z,9.00
2018-05-12T03:49:35.192Z,9.00
2018-05-12T03:52:06.390Z,9.10
2018-05-12T03:54:55.649Z,9.10
2018-05-12T03:57:25.742Z,9.10
2018-05-12T04:02:33.854Z,9.10
2018-05-12T04:05:24.657Z,9.10
2018-05-12T04:08:12.623Z,9.10
2018-05-12T04:10:58.747Z,9.20
2018-05-12T04:13:29.651Z,9.30
2018-05-12T04:15:59.784Z,9.40
2018-05-12T04:18:32.056Z,9.60
2018-05-12T04:21:02.225Z,9.80
2018-05-12T04:23:32.551Z,9.80
2018-05-12T04:26:02.736Z,9.80
2018-05-12T04:28:33.051Z,9.90
2018-05-12T04:31:03.167Z,9.90
2018-05-12T04:33:33.245Z,9.90
2018-05-12T04:36:03.339Z,9.90
2018-05-12T04:38:33.673Z,9.90
2018-05-12T04:41:03.879Z,10.00
2018-05-12T04:43:34.234Z,10.00
2018-05-12T04:46:04.858Z,10.10
2018-05-12T04:48:35.085Z,10.10
2018-05-12T04:51:05.171Z,10.20
2018-05-12T04:53:35.864Z,10.30
2018-05-12T04:56:06.642Z,10.50
2018-05-12T04:58:37.215Z,10.60
2018-05-12T05:01:07.353Z,11.00
2018-05-12T05:03:37.827Z,11.30
2018-05-12T05:06:08.355Z,11.60
2018-05-12T05:08:38.480Z,11.80
2018-05-12T05:11:08.652Z,12.10
2018-05-12T05:13:39.028Z,12.30
2018-05-12T05:16:09.516Z,12.50
2018-05-12T05:18:39.675Z,12.70
2018-05-12T05:21:09.510Z,13.10
2018-05-12T05:23:39.782Z,13.60
2018-05-12T05:26:09.547Z,14.10
2018-05-12T05:28:39.692Z,14.60
2018-05-12T05:31:09.439Z,15.10
2018-05-12T05:33:39.880Z,15.70
2018-05-12T05:36:10.037Z,16.10
2018-05-12T05:38:40.333Z,16.50
2018-05-12T05:41:10.945Z,16.90
2018-05-12T05:43:41.852Z,17.10
2018-05-12T05:46:12.579Z,17.40
2018-05-12T05:48:43.123Z,17.80
2018-05-12T05:51:14.033Z,18.10
2018-05-12T05:53:45.499Z,18.60
2018-05-12T05:56:16.381Z,18.50
2018-05-12T05:58:47.079Z,18.10
2018-05-12T06:01:17.811Z,17.70
2018-05-12T06:03:48.491Z,17.70
2018-05-12T06:06:19.198Z,17.80
2018-05-12T06:08:49.853Z,18.10
2018-05-12T06:11:20.524Z,18.40
2018-05-12T06:13:51.210Z,18.80
2018-05-12T06:16:21.871Z,19.00
2018-05-12T06:18:52.760Z,19.50
2018-05-12T06:21:23.706Z,19.80
2018-05-12T06:23:55.438Z,20.30
2018-05-12T06:26:26.224Z,20.40
2018-05-12T06:28:56.946Z,20.30
2018-05-12T06:31:27.651Z,20.50
2018-05-12T06:33:58.943Z,20.90
2018-05-12T06:36:31.489Z,21.10
2018-05-12T06:39:03.309Z,21.10
2018-05-12T06:41:34.799Z,21.30
2018-05-12T06:44:05.892Z,21.50
2018-05-12T06:46:36.847Z,21.50
2018-05-12T06:49:07.583Z,21.30
2018-05-12T06:51:38.740Z,21.30
2018-05-12T06:54:09.434Z,21.20
2018-05-12T06:56:40.142Z,20.70
2018-05-12T06:59:11.296Z,20.10
2018-05-12T07:01:42.073Z,19.50
2018-05-12T07:04:12.819Z,19.00
2018-05-12T07:06:43.357Z,19.10
2018-05-12T07:09:15.577Z,19.30
2018-05-12T07:11:46.361Z,19.30
2018-05-12T07:14:17.915Z,19.60
2018-05-12T07:16:48.939Z,19.90
2018-05-12T07:19:20.579Z,20.70
2018-05-12T07:21:51.732Z,20.70
2018-05-12T07:24:22.622Z,20.70
2018-05-12T07:26:53.582Z,21.00
2018-05-12T07:29:24.258Z,21.50
2018-05-12T07:31:55.302Z,21.80
2018-05-12T07:34:26.268Z,22.40
2018-05-12T07:36:56.933Z,23.10
2018-05-12T07:39:27.691Z,23.70
2018-05-12T07:41:58.139Z,24.10
2018-05-12T07:44:28.915Z,24.50
2018-05-12T07:46:59.631Z,24.00
2018-05-12T07:49:31.062Z,23.90
2018-05-12T07:52:01.777Z,24.20
2018-05-12T07:54:32.141Z,24.40
2018-05-12T07:57:02.935Z,24.50
2018-05-12T07:59:33.518Z,24.70
2018-05-12T08:02:04.703Z,24.50
2018-05-12T08:04:35.080Z,24.70
2018-05-12T08:07:05.145Z,24.60
2018-05-12T08:09:35.994Z,24.60
2018-05-12T08:12:06.350Z,24.40
2018-05-12T08:14:37.258Z,24.10
2018-05-12T08:17:07.927Z,24.10
2018-05-12T08:19:38.339Z,23.80
2018-05-12T08:22:08.689Z,23.90
2018-05-12T08:24:39.537Z,24.10
2018-05-12T08:27:10.547Z,24.00
2018-05-12T08:29:40.888Z,23.50
2018-05-12T08:32:12.291Z,23.30
2018-05-12T08:34:43.430Z,23.30
2018-05-12T08:37:14.580Z,23.00
2018-05-12T08:39:45.692Z,23.00
2018-05-12T08:42:16.604Z,23.00
2018-05-12T08:44:47.472Z,23.60
2018-05-12T08:47:18.350Z,24.00
2018-05-12T08:49:49.034Z,23.90
2018-05-12T08:52:19.754Z,23.50
2018-05-12T08:54:50.717Z,23.60
2018-05-12T08:57:21.105Z,23.40
2018-05-12T08:59:51.765Z,23.30
2018-05-12T09:02:23.201Z,23.70
2018-05-12T09:04:53.836Z,23.70
2018-05-12T09:07:24.770Z,23.80
2018-05-12T09:09:56.379Z,23.70
2018-05-12T09:12:28.079Z,24.10
2018-05-12T09:14:58.742Z,24.10
2018-05-12T09:17:29.360Z,24.00
2018-05-12T09:20:00.013Z,24.20
2018-05-12T09:22:31.174Z,24.30
2018-05-12T09:25:01.851Z,24.30
2018-05-12T09:27:32.496Z,24.60
2018-05-12T09:30:03.586Z,24.90
2018-05-12T09:32:34.424Z,24.90
2018-05-12T09:35:05.703Z,25.50
2018-05-12T09:37:36.626Z,25.50
2018-05-12T09:40:07.284Z,25.40
2018-05-12T09:42:38.163Z,25.80
2018-05-12T09:45:08.966Z,25.90
2018-05-12T09:47:39.678Z,25.80
2018-05-12T09:50:11.215Z,25.00
2018-05-12T09:52:42.039Z,24.90
2018-05-12T09:55:12.748Z,25.00
2018-05-12T09:57:43.409Z,25.40
2018-05-12T10:00:16.426Z,25.80
2018-05-12T10:02:47.280Z,25.80
2018-05-12T10:05:17.621Z,25.80
2018-05-12T10:07:48.463Z,25.70
2018-05-12T10:10:18.772Z,26.00
2018-05-12T10:12:49.455Z,25.80
2018-05-12T10:15:20.778Z,25.40
2018-05-12T10:17:51.077Z,25.40
2018-05-12T10:20:21.739Z,25.50
2018-05-12T10:22:53.378Z,25.60
2018-05-12T10:25:24.225Z,25.60
2018-05-12T10:27:54.998Z,24.60
2018-05-12T10:30:25.817Z,24.10
2018-05-12T10:32:56.523Z,23.80
2018-05-12T10:35:27.183Z,24.00
2018-05-12T10:37:57.869Z,24.40
2018-05-12T10:40:28.551Z,24.90
2018-05-12T10:43:00.023Z,24.50
2018-05-12T10:45:30.765Z,24.50
2018-05-12T10:48:03.393Z,24.60
2018-05-12T10:50:34.143Z,24.60
2018-05-12T10:53:05.159Z,25.10
2018-05-12T10:55:36.854Z,24.90
2018-05-12T10:58:07.609Z,24.90
2018-05-12T11:00:38.297Z,24.70
2018-05-12T11:03:08.997Z,23.90
2018-05-12T11:05:39.745Z,23.80
2018-05-12T11:08:10.390Z,24.00
2018-05-12T11:10:41.245Z,24.90
2018-05-12T11:13:11.948Z,24.80
2018-05-12T11:15:42.657Z,24.30
2018-05-12T11:18:13.331Z,24.00
2018-05-12T11:20:44.295Z,23.90
2018-05-12T11:23:14.957Z,24.60
2018-05-12T11:25:46.056Z,25.50
2018-05-12T11:28:16.001Z,26.80
2018-05-12T11:30:47.131Z,29.10
2018-05-12T11:33:17.498Z,29.00
2018-05-12T11:35:47.865Z,28.40
2018-05-12T11:38:18.507Z,27.60
2018-05-12T11:40:49.180Z,26.50
2018-05-12T11:43:19.840Z,26.60
2018-05-12T11:45:51.282Z,26.40
2018-05-12T11:48:21.669Z,26.50
2018-05-12T11:50:52.024Z,26.60
2018-05-12T11:53:23.377Z,27.20
2018-05-12T11:55:54.793Z,27.30
2018-05-12T11:58:25.946Z,27.40
2018-05-12T12:00:56.454Z,27.40
2018-05-12T12:03:26.830Z,27.50
2018-05-12T12:05:57.939Z,27.50
2018-05-12T12:08:28.493Z,27.40
2018-05-12T12:10:58.495Z,26.90
2018-05-12T12:13:29.135Z,26.50
2018-05-12T12:15:59.723Z,26.80
2018-05-12T12:18:30.340Z,26.90
2018-05-12T12:21:00.762Z,26.40
2018-05-12T12:23:31.427Z,25.90
2018-05-12T12:26:01.848Z,26.40
2018-05-12T12:28:32.689Z,26.30
2018-05-12T12:31:03.350Z,26.30
2018-05-12T12:33:34.004Z,26.30
2018-05-12T12:36:03.995Z,26.40
2018-05-12T12:38:34.389Z,26.50
2018-05-12T12:41:04.732Z,26.00
2018-05-12T12:43:35.580Z,25.50
2018-05-12T12:46:05.628Z,25.40
2018-05-12T12:48:36.073Z,25.60
2018-05-12T12:51:06.804Z,25.80
2018-05-12T12:53:37.507Z,26.00
2018-05-12T12:56:08.481Z,25.50
2018-05-12T12:58:39.196Z,25.00
2018-05-12T13:01:09.915Z,24.70
2018-05-12T13:03:40.591Z,24.60
2018-05-12T13:06:11.504Z,24.40
2018-05-12T13:08:43.213Z,24.30
2018-05-12T13:11:13.881Z,24.40
2018-05-12T13:13:44.535Z,24.70
2018-05-12T13:16:15.482Z,25.10
2018-05-12T13:18:46.167Z,24.90
2018-05-12T13:21:17.596Z,25.20
2018-05-12T13:23:48.127Z,25.10
2018-05-12T13:26:18.839Z,25.10
2018-05-12T13:28:49.678Z,24.90
2018-05-12T13:31:20.544Z,24.50
2018-05-12T13:33:51.188Z,24.30
2018-05-12T13:36:21.858Z,24.30
2018-05-12T13:38:52.701Z,24.50
2018-05-12T13:41:23.793Z,24.80
2018-05-12T13:43:54.478Z,25.20
2018-05-12T13:46:25.884Z,25.30
2018-05-12T13:48:59.222Z,25.30
2018-05-12T13:51:30.144Z,25.10
2018-05-12T13:54:00.788Z,25.10
2018-05-12T13:56:32.270Z,25.20
2018-05-12T13:59:03.120Z,25.20
2018-05-12T14:01:34.740Z,25.40
2018-05-12T14:04:05.378Z,25.40
2018-05-12T14:06:36.074Z,25.60
2018-05-12T14:09:06.056Z,25.80
2018-05-12T14:11:37.484Z,25.80
2018-05-12T14:14:08.147Z,25.80
2018-05-12T14:16:38.450Z,25.80
2018-05-12T14:19:09.363Z,25.90
2018-05-12T14:21:40.253Z,26.10
2018-05-12T14:24:11.111Z,26.30
2018-05-12T14:26:41.803Z,26.10
2018-05-12T14:29:12.434Z,25.60
2018-05-12T14:31:43.106Z,25.10
2018-05-12T14:34:14.412Z,24.90
2018-05-12T14:36:45.042Z,24.90
2018-05-12T14:39:15.729Z,24.90
2018-05-12T14:41:47.409Z,24.50
2018-05-12T14:44:18.229Z,24.50
2018-05-12T14:46:49.663Z,24.40
2018-05-12T14:49:20.328Z,24.40
2018-05-12T14:51:50.632Z,24.50
2018-05-12T14:54:21.494Z,24.40
2018-05-12T14:56:52.414Z,24.40
2018-05-12T14:59:23.286Z,24.20
2018-05-12T15:01:54.076Z,24.30
2018-05-12T15:04:26.532Z,24.70
2018-05-12T15:06:57.188Z,24.70
2018-05-12T15:09:27.876Z,24.70
2018-05-12T15:11:58.698Z,24.70
2018-05-12T15:14:29.527Z,24.70
2018-05-12T15:17:01.308Z,24.50
2018-05-12T15:19:32.910Z,24.70
2018-05-12T15:22:03.588Z,24.70
2018-05-12T15:24:34.232Z,24.80
2018-05-12T15:27:04.896Z,24.90
2018-05-12T15:29:35.623Z,24.80
2018-05-12T15:32:06.489Z,24.30
2018-05-12T15:34:37.160Z,23.70
2018-05-12T15:37:07.820Z,23.60
2018-05-12T15:39:38.473Z,23.60
2018-05-12T15:42:09.290Z,23.70
2018-05-12T15:44:39.915Z,24.00
2018-05-12T15:47:11.502Z,24.30
2018-05-12T15:49:42.658Z,24.40
2018-05-12T15:52:13.482Z,24.50
2018-05-12T15:54:44.139Z,24.40
2018-05-12T15:57:14.801Z,24.40
2018-05-12T15:59:45.651Z,24.30
2018-05-12T16:02:16.751Z,24.30
2018-05-12T16:04:48.437Z,24.30
2018-05-12T16:07:19.277Z,24.20
2018-05-12T16:09:49.915Z,24.20
2018-05-12T16:12:20.675Z,24.20
2018-05-12T16:14:51.488Z,23.90
2018-05-12T16:17:22.731Z,23.70
2018-05-12T16:19:53.544Z,23.90
2018-05-12T16:22:24.992Z,23.60
2018-05-12T16:24:55.633Z,23.60
2018-05-12T16:27:26.484Z,23.60
2018-05-12T16:29:57.486Z,23.60
2018-05-12T16:32:28.355Z,23.50
2018-05-12T16:34:58.996Z,23.30
2018-05-12T16:37:29.839Z,23.10
2018-05-12T16:40:00.525Z,22.90
2018-05-12T16:42:31.189Z,22.80
2018-05-12T16:45:01.922Z,22.70
2018-05-12T16:47:32.546Z,22.70
2018-05-12T16:50:03.386Z,22.70
2018-05-12T16:52:34.814Z,22.70
2018-05-12T16:55:05.447Z,22.70
2018-05-12T16:57:36.138Z,22.80
2018-05-12T17:00:06.984Z,22.70
2018-05-12T17:02:37.720Z,22.70
2018-05-12T17:05:08.366Z,22.60
2018-05-12T17:07:39.003Z,22.70
2018-05-12T17:10:10.126Z,22.70
2018-05-12T17:12:40.980Z,22.50
2018-05-12T17:15:11.891Z,22.50
2018-05-12T17:17:43.353Z,22.20
2018-05-12T17:20:14.214Z,22.20
2018-05-12T17:22:45.072Z,22.00
2018-05-12T17:25:16.004Z,21.80
2018-05-12T17:27:46.519Z,21.60
2018-05-12T17:30:17.172Z,21.40
2018-05-12T17:32:48.799Z,21.10
2018-05-12T17:35:19.462Z,21.10
2018-05-12T17:37:50.139Z,21.10
2018-05-12T17:40:20.967Z,20.90
2018-05-12T17:42:51.644Z,20.80
2018-05-12T17:45:22.778Z,20.70
2018-05-12T17:47:53.070Z,20.70
2018-05-12T17:50:23.913Z,20.60
2018-05-12T17:52:54.782Z,20.60
2018-05-12T17:55:25.646Z,20.50
2018-05-12T17:57:56.234Z,20.40
2018-05-12T18:00:27.760Z,20.20
2018-05-12T18:02:58.447Z,20.20
2018-05-12T18:05:29.296Z,20.00
2018-05-12T18:08:00.340Z,19.80
2018-05-12T18:10:32.028Z,19.50
2018-05-12T18:13:02.668Z,19.40
2018-05-12T18:15:34.283Z,19.10
2018-05-12T18:18:05.045Z,19.00
2018-05-12T18:20:36.600Z,18.80
2018-05-12T18:23:08.370Z,18.50
2018-05-12T18:25:39.427Z,18.50
2018-05-12T18:28:10.886Z,18.10
2018-05-12T18:30:41.537Z,18.10
2018-05-12T18:33:12.198Z,18.00
2018-05-12T18:35:43.271Z,17.80
2018-05-12T18:38:13.368Z,17.70
2018-05-12T18:40:44.698Z,17.40
2018-05-12T18:43:16.179Z,17.30
2018-05-12T18:45:46.760Z,17.30
2018-05-12T18:48:17.676Z,17.30
2018-05-12T18:50:48.360Z,17.30
2018-05-12T18:53:18.685Z,17.30
2018-05-12T18:55:48.964Z,17.30
2018-05-12T18:58:19.372Z,17.30
2018-05-12T19:00:50.223Z,17.20
2018-05-12T19:03:20.308Z,17.20
2018-05-12T19:05:50.492Z,17.20
2018-05-12T19:08:21.401Z,17.20
2018-05-12T19:10:51.633Z,17.20
2018-05-12T19:13:21.750Z,17.30
2018-05-12T19:15:52.794Z,17.30
2018-05-12T19:18:22.888Z,17.20
2018-05-12T19:20:52.980Z,17.30
2018-05-12T19:23:23.200Z,17.30
2018-05-12T19:25:53.413Z,17.40
2018-05-12T19:28:24.323Z,17.40
2018-05-12T19:30:54.742Z,17.40
2018-05-12T19:33:25.928Z,17.40
2018-05-12T19:35:56.038Z,17.40
2018-05-12T19:38:27.214Z,17.30
2018-05-12T19:40:57.443Z,17.30
2018-05-12T19:43:27.807Z,17.20
2018-05-12T19:45:58.548Z,17.20
2018-05-12T19:48:28.935Z,17.10
2018-05-12T19:50:59.110Z,17.20
2018-05-12T19:53:29.305Z,17.20
2018-05-12T19:56:00.460Z,17.20
2018-05-12T19:58:30.813Z,17.20
2018-05-12T20:01:01.004Z,17.10
2018-05-12T20:03:31.400Z,17.10
2018-05-12T20:06:01.549Z,17.00
2018-05-12T20:08:31.872Z,16.90
2018-05-12T20:11:02.683Z,16.80
2018-05-12T20:13:33.049Z,16.70
2018-05-12T20:16:03.955Z,16.50
2018-05-12T20:18:35.288Z,16.10
2018-05-12T20:21:05.668Z,16.10
2018-05-12T20:23:35.808Z,15.20
2018-05-12T20:26:06.010Z,14.50
2018-05-12T20:28:36.223Z,14.10
2018-05-12T20:31:06.439Z,13.70
2018-05-12T20:33:37.380Z,13.40
2018-05-12T20:36:08.515Z,13.20
2018-05-12T20:38:38.798Z,13.00
2018-05-12T20:43:59.369Z,12.90
2018-05-12T20:46:31.752Z,12.80
2018-05-12T20:49:02.520Z,12.80
2018-05-12T20:51:34.843Z,12.70
2018-05-12T20:54:06.484Z,12.70
2018-05-12T20:56:36.842Z,12.60
2018-05-12T21:22:35.554Z,11.90
2018-05-12T21:31:24.249Z,11.90
2018-05-12T21:40:19.996Z,12.00
2018-05-12T21:49:29.351Z,12.10
2018-05-12T21:52:15.850Z,12.10
2018-05-12T21:55:04.724Z,12.00
2018-05-12T22:04:06.967Z,12.10
2018-05-12T22:06:55.205Z,12.10
2018-05-12T22:09:41.917Z,12.00
2018-05-12T22:18:32.363Z,12.10
2018-05-12T22:21:02.596Z,12.10
2018-05-12T22:26:38.767Z,12.10
2018-05-12T22:29:34.819Z,12.20
2018-05-12T22:32:04.935Z,12.30
2018-05-12T22:37:44.874Z,12.20
2018-05-12T22:43:41.466Z,12.20
2018-05-12T22:46:29.753Z,12.30
2018-05-12T22:52:19.690Z,12.30
2018-05-12T22:55:08.569Z,12.30
2018-05-12T23:01:08.412Z,12.20
2018-05-12T23:09:57.994Z,12.20
2018-05-12T23:12:28.143Z,12.10
2018-05-12T23:14:59.131Z,12.10
2018-05-12T23:20:40.376Z,12.10
2018-05-12T23:42:40.546Z,11.90
2018-05-12T23:45:10.967Z,11.80
2018-05-12T23:47:47.823Z,11.80
2018-05-12T23:50:24.939Z,11.90
2018-05-12T23:52:57.440Z,11.90
2018-05-12T23:55:28.520Z,12.10
2018-05-12T23:57:58.957Z,12.10
